sensor_id;sensor_type;location;lat;lon;timestamp;P1;durP1;ratioP1;P2;durP2;ratioP2
34924;SDS011;21130;51.728;8.748;2023-03-31T00:01:48;2.25;;;1.08;;
34924;SDS011;21130;51.728;8.748;2023-03-31T00:04:16;4.22;;;1.40;;
34924;SDS011;21130;51.728;8.748;2023-03-31T00:06:44;3.25;;;1.50;;
34924;SDS011;21130;51.728;8.748;2023-03-31T00:09:12;4.57;;;1.55;;
34924;SDS011;21130;51.728;8.748;2023-03-31T00:11:43;7.22;;;1.80;;
34924;SDS011;21130;51.728;8.748;2023-03-31T00:14:10;6.00;;;1.48;;
34924;SDS011;21130;51.728;8.748;2023-03-31T00:16:37;4.07;;;1.45;;
34924;SDS011;21130;51.728;8.748;2023-03-31T00:19:04;6.25;;;2.03;;
34924;SDS011;21130;51.728;8.748;2023-03-31T00:21:34;4.35;;;1.80;;
34924;SDS011;21130;51.728;8.748;2023-03-31T00:24:02;4.40;;;1.48;;
34924;SDS011;21130;51.728;8.748;2023-03-31T00:26:30;4.88;;;1.50;;
34924;SDS011;21130;51.728;8.748;2023-03-31T00:28:59;6.28;;;1.88;;
34924;SDS011;21130;51.728;8.748;2023-03-31T00:31:26;4.15;;;1.45;;
34924;SDS011;21130;51.728;8.748;2023-03-31T00:33:53;4.25;;;1.75;;
34924;SDS011;21130;51.728;8.748;2023-03-31T00:36:22;4.80;;;1.60;;
34924;SDS011;21130;51.728;8.748;2023-03-31T00:38:52;3.95;;;1.60;;
34924;SDS011;21130;51.728;8.748;2023-03-31T00:41:20;5.35;;;1.55;;
34924;SDS011;21130;51.728;8.748;2023-03-31T00:44:00;6.55;;;1.65;;
34924;SDS011;21130;51.728;8.748;2023-03-31T00:46:32;4.18;;;1.65;;
34924;SDS011;21130;51.728;8.748;2023-03-31T00:49:02;4.38;;;1.55;;
34924;SDS011;21130;51.728;8.748;2023-03-31T00:51:29;7.20;;;1.63;;
34924;SDS011;21130;51.728;8.748;2023-03-31T00:53:59;7.43;;;1.90;;
34924;SDS011;21130;51.728;8.748;2023-03-31T00:56:30;4.90;;;1.77;;
34924;SDS011;21130;51.728;8.748;2023-03-31T00:59:01;6.60;;;1.88;;
34924;SDS011;21130;51.728;8.748;2023-03-31T01:01:31;5.72;;;1.60;;
34924;SDS011;21130;51.728;8.748;2023-03-31T01:03:59;4.80;;;1.38;;
34924;SDS011;21130;51.728;8.748;2023-03-31T01:06:26;4.20;;;1.40;;
34924;SDS011;21130;51.728;8.748;2023-03-31T01:08:55;7.50;;;1.30;;
34924;SDS011;21130;51.728;8.748;2023-03-31T01:11:22;3.42;;;1.42;;
34924;SDS011;21130;51.728;8.748;2023-03-31T01:13:52;5.25;;;1.50;;
34924;SDS011;21130;51.728;8.748;2023-03-31T01:16:20;2.72;;;1.13;;
34924;SDS011;21130;51.728;8.748;2023-03-31T01:18:47;4.63;;;1.48;;
34924;SDS011;21130;51.728;8.748;2023-03-31T01:27:49;5.05;;;1.27;;
34924;SDS011;21130;51.728;8.748;2023-03-31T01:30:38;4.63;;;1.40;;
34924;SDS011;21130;51.728;8.748;2023-03-31T01:42:32;6.28;;;1.40;;
34924;SDS011;21130;51.728;8.748;2023-03-31T01:45:01;6.22;;;1.38;;
34924;SDS011;21130;51.728;8.748;2023-03-31T01:47:39;4.32;;;1.40;;
34924;SDS011;21130;51.728;8.748;2023-03-31T01:50:14;6.47;;;1.77;;
34924;SDS011;21130;51.728;8.748;2023-03-31T01:52:48;9.98;;;2.15;;
34924;SDS011;21130;51.728;8.748;2023-03-31T01:55:25;7.55;;;1.52;;
34924;SDS011;21130;51.728;8.748;2023-03-31T01:57:56;5.35;;;1.35;;
34924;SDS011;21130;51.728;8.748;2023-03-31T02:00:33;4.13;;;1.52;;
34924;SDS011;21130;51.728;8.748;2023-03-31T02:03:05;6.13;;;1.52;;
34924;SDS011;21130;51.728;8.748;2023-03-31T02:05:37;4.28;;;1.33;;
34924;SDS011;21130;51.728;8.748;2023-03-31T02:08:09;5.25;;;1.90;;
34924;SDS011;21130;51.728;8.748;2023-03-31T02:10:41;5.88;;;1.98;;
34924;SDS011;21130;51.728;8.748;2023-03-31T02:13:10;3.75;;;1.58;;
34924;SDS011;21130;51.728;8.748;2023-03-31T02:15:40;4.60;;;1.40;;
34924;SDS011;21130;51.728;8.748;2023-03-31T02:18:12;5.35;;;1.70;;
34924;SDS011;21130;51.728;8.748;2023-03-31T02:20:43;3.60;;;1.42;;
34924;SDS011;21130;51.728;8.748;2023-03-31T02:23:16;5.32;;;1.65;;
34924;SDS011;21130;51.728;8.748;2023-03-31T02:25:48;5.57;;;1.58;;
34924;SDS011;21130;51.728;8.748;2023-03-31T02:28:19;8.65;;;2.13;;
34924;SDS011;21130;51.728;8.748;2023-03-31T02:30:48;4.15;;;1.50;;
34924;SDS011;21130;51.728;8.748;2023-03-31T02:33:22;5.50;;;1.70;;
34924;SDS011;21130;51.728;8.748;2023-03-31T02:35:49;4.90;;;1.50;;
34924;SDS011;21130;51.728;8.748;2023-03-31T02:38:16;4.80;;;1.75;;
34924;SDS011;21130;51.728;8.748;2023-03-31T02:40:43;5.50;;;1.80;;
34924;SDS011;21130;51.728;8.748;2023-03-31T02:43:11;3.97;;;1.25;;
34924;SDS011;21130;51.728;8.748;2023-03-31T02:45:39;5.40;;;1.42;;
34924;SDS011;21130;51.728;8.748;2023-03-31T02:48:08;6.35;;;1.85;;
34924;SDS011;21130;51.728;8.748;2023-03-31T02:50:41;3.28;;;1.40;;
34924;SDS011;21130;51.728;8.748;2023-03-31T02:53:21;6.70;;;2.13;;
34924;SDS011;21130;51.728;8.748;2023-03-31T02:55:58;6.90;;;1.70;;
34924;SDS011;21130;51.728;8.748;2023-03-31T02:58:43;4.65;;;1.25;;
34924;SDS011;21130;51.728;8.748;2023-03-31T03:01:26;8.70;;;2.03;;
34924;SDS011;21130;51.728;8.748;2023-03-31T03:04:05;4.57;;;1.38;;
34924;SDS011;21130;51.728;8.748;2023-03-31T03:06:44;4.55;;;1.38;;
34924;SDS011;21130;51.728;8.748;2023-03-31T03:09:26;6.10;;;1.75;;
34924;SDS011;21130;51.728;8.748;2023-03-31T03:12:05;3.90;;;1.45;;
34924;SDS011;21130;51.728;8.748;2023-03-31T03:14:38;4.93;;;1.67;;
34924;SDS011;21130;51.728;8.748;2023-03-31T03:17:13;6.43;;;1.52;;
34924;SDS011;21130;51.728;8.748;2023-03-31T03:19:49;3.75;;;1.20;;
34924;SDS011;21130;51.728;8.748;2023-03-31T03:22:16;3.75;;;1.30;;
34924;SDS011;21130;51.728;8.748;2023-03-31T03:24:43;5.90;;;1.50;;
34924;SDS011;21130;51.728;8.748;2023-03-31T03:27:09;7.47;;;2.00;;
34924;SDS011;21130;51.728;8.748;2023-03-31T03:29:36;5.60;;;1.58;;
34924;SDS011;21130;51.728;8.748;2023-03-31T03:32:03;6.07;;;1.50;;
34924;SDS011;21130;51.728;8.748;2023-03-31T03:34:30;5.30;;;1.65;;
34924;SDS011;21130;51.728;8.748;2023-03-31T03:36:57;5.47;;;1.42;;
34924;SDS011;21130;51.728;8.748;2023-03-31T03:39:23;2.42;;;1.10;;
34924;SDS011;21130;51.728;8.748;2023-03-31T03:41:50;4.40;;;1.30;;
34924;SDS011;21130;51.728;8.748;2023-03-31T03:44:16;4.85;;;1.75;;
34924;SDS011;21130;51.728;8.748;2023-03-31T03:46:44;3.60;;;1.40;;
34924;SDS011;21130;51.728;8.748;2023-03-31T03:49:30;4.85;;;1.58;;
34924;SDS011;21130;51.728;8.748;2023-03-31T03:52:15;3.97;;;1.52;;
34924;SDS011;21130;51.728;8.748;2023-03-31T03:55:00;3.58;;;1.20;;
34924;SDS011;21130;51.728;8.748;2023-03-31T03:57:27;4.88;;;1.52;;
34924;SDS011;21130;51.728;8.748;2023-03-31T03:59:53;5.78;;;1.50;;
34924;SDS011;21130;51.728;8.748;2023-03-31T04:02:21;5.53;;;1.60;;
34924;SDS011;21130;51.728;8.748;2023-03-31T04:04:47;4.22;;;1.20;;
34924;SDS011;21130;51.728;8.748;2023-03-31T04:07:14;5.13;;;1.40;;
34924;SDS011;21130;51.728;8.748;2023-03-31T04:09:41;5.13;;;1.60;;
34924;SDS011;21130;51.728;8.748;2023-03-31T04:12:08;4.38;;;1.40;;
34924;SDS011;21130;51.728;8.748;2023-03-31T04:14:34;3.63;;;1.00;;
34924;SDS011;21130;51.728;8.748;2023-03-31T04:17:01;3.78;;;1.27;;
34924;SDS011;21130;51.728;8.748;2023-03-31T04:19:28;4.28;;;1.20;;
34924;SDS011;21130;51.728;8.748;2023-03-31T04:21:55;5.80;;;1.50;;
34924;SDS011;21130;51.728;8.748;2023-03-31T04:24:26;8.48;;;1.55;;
34924;SDS011;21130;51.728;8.748;2023-03-31T04:26:54;6.25;;;1.85;;
34924;SDS011;21130;51.728;8.748;2023-03-31T04:29:21;5.35;;;1.73;;
34924;SDS011;21130;51.728;8.748;2023-03-31T04:31:50;6.60;;;1.60;;
34924;SDS011;21130;51.728;8.748;2023-03-31T04:34:18;6.65;;;2.00;;
34924;SDS011;21130;51.728;8.748;2023-03-31T04:36:47;5.63;;;1.60;;
34924;SDS011;21130;51.728;8.748;2023-03-31T04:39:14;5.05;;;1.75;;
34924;SDS011;21130;51.728;8.748;2023-03-31T04:41:42;5.72;;;1.92;;
34924;SDS011;21130;51.728;8.748;2023-03-31T04:44:08;6.45;;;1.60;;
34924;SDS011;21130;51.728;8.748;2023-03-31T04:46:36;7.05;;;1.92;;
34924;SDS011;21130;51.728;8.748;2023-03-31T04:49:02;6.45;;;1.75;;
34924;SDS011;21130;51.728;8.748;2023-03-31T04:51:29;7.95;;;1.73;;
34924;SDS011;21130;51.728;8.748;2023-03-31T04:53:57;7.30;;;1.58;;
34924;SDS011;21130;51.728;8.748;2023-03-31T04:56:24;4.07;;;1.63;;
34924;SDS011;21130;51.728;8.748;2023-03-31T04:58:51;5.47;;;1.75;;
34924;SDS011;21130;51.728;8.748;2023-03-31T05:01:18;5.07;;;1.58;;
34924;SDS011;21130;51.728;8.748;2023-03-31T05:03:44;5.13;;;1.58;;
34924;SDS011;21130;51.728;8.748;2023-03-31T05:06:12;5.35;;;1.60;;
34924;SDS011;21130;51.728;8.748;2023-03-31T05:08:38;4.82;;;1.83;;
34924;SDS011;21130;51.728;8.748;2023-03-31T05:11:06;8.88;;;2.08;;
34924;SDS011;21130;51.728;8.748;2023-03-31T05:13:32;5.80;;;2.08;;
34924;SDS011;21130;51.728;8.748;2023-03-31T05:16:04;5.95;;;1.63;;
34924;SDS011;21130;51.728;8.748;2023-03-31T05:18:31;5.40;;;1.90;;
34924;SDS011;21130;51.728;8.748;2023-03-31T05:21:06;5.50;;;2.03;;
34924;SDS011;21130;51.728;8.748;2023-03-31T05:23:34;6.47;;;2.47;;
34924;SDS011;21130;51.728;8.748;2023-03-31T05:26:00;6.80;;;1.98;;
34924;SDS011;21130;51.728;8.748;2023-03-31T05:28:28;5.53;;;2.22;;
34924;SDS011;21130;51.728;8.748;2023-03-31T05:30:55;5.60;;;1.95;;
34924;SDS011;21130;51.728;8.748;2023-03-31T05:33:24;8.60;;;2.25;;
34924;SDS011;21130;51.728;8.748;2023-03-31T05:35:50;6.40;;;2.17;;
34924;SDS011;21130;51.728;8.748;2023-03-31T05:38:16;12.23;;;2.72;;
34924;SDS011;21130;51.728;8.748;2023-03-31T05:40:43;8.23;;;2.42;;
34924;SDS011;21130;51.728;8.748;2023-03-31T05:43:09;9.93;;;2.33;;
34924;SDS011;21130;51.728;8.748;2023-03-31T05:45:38;6.63;;;2.20;;
34924;SDS011;21130;51.728;8.748;2023-03-31T05:48:05;7.60;;;2.45;;
34924;SDS011;21130;51.728;8.748;2023-03-31T05:50:32;7.75;;;2.25;;
34924;SDS011;21130;51.728;8.748;2023-03-31T05:52:58;7.95;;;2.17;;
34924;SDS011;21130;51.728;8.748;2023-03-31T05:55:24;7.60;;;2.17;;
34924;SDS011;21130;51.728;8.748;2023-03-31T05:57:51;6.18;;;2.38;;
34924;SDS011;21130;51.728;8.748;2023-03-31T06:00:18;8.57;;;2.55;;
34924;SDS011;21130;51.728;8.748;2023-03-31T06:02:47;4.28;;;1.90;;
34924;SDS011;21130;51.728;8.748;2023-03-31T06:05:13;8.35;;;2.40;;
34924;SDS011;21130;51.728;8.748;2023-03-31T06:07:40;8.25;;;2.28;;
34924;SDS011;21130;51.728;8.748;2023-03-31T06:10:06;4.13;;;1.98;;
34924;SDS011;21130;51.728;8.748;2023-03-31T06:12:34;9.88;;;2.30;;
34924;SDS011;21130;51.728;8.748;2023-03-31T06:15:01;8.40;;;2.00;;
34924;SDS011;21130;51.728;8.748;2023-03-31T06:17:27;7.25;;;1.90;;
34924;SDS011;21130;51.728;8.748;2023-03-31T06:19:55;7.25;;;2.10;;
34924;SDS011;21130;51.728;8.748;2023-03-31T06:22:22;6.90;;;2.13;;
34924;SDS011;21130;51.728;8.748;2023-03-31T06:24:48;7.50;;;2.00;;
34924;SDS011;21130;51.728;8.748;2023-03-31T06:27:14;6.47;;;2.28;;
34924;SDS011;21130;51.728;8.748;2023-03-31T06:29:41;8.20;;;2.20;;
34924;SDS011;21130;51.728;8.748;2023-03-31T06:32:07;5.68;;;2.15;;
34924;SDS011;21130;51.728;8.748;2023-03-31T06:34:34;7.50;;;2.13;;
34924;SDS011;21130;51.728;8.748;2023-03-31T06:37:01;5.57;;;1.95;;
34924;SDS011;21130;51.728;8.748;2023-03-31T06:39:28;4.70;;;1.45;;
34924;SDS011;21130;51.728;8.748;2023-03-31T06:41:54;3.78;;;1.60;;
34924;SDS011;21130;51.728;8.748;2023-03-31T06:44:21;6.55;;;1.77;;
34924;SDS011;21130;51.728;8.748;2023-03-31T06:46:49;4.80;;;1.77;;
34924;SDS011;21130;51.728;8.748;2023-03-31T06:49:15;6.22;;;1.83;;
34924;SDS011;21130;51.728;8.748;2023-03-31T06:51:42;5.95;;;2.30;;
34924;SDS011;21130;51.728;8.748;2023-03-31T06:54:10;4.70;;;1.90;;
34924;SDS011;21130;51.728;8.748;2023-03-31T06:56:36;3.70;;;1.42;;
34924;SDS011;21130;51.728;8.748;2023-03-31T06:59:03;6.03;;;2.00;;
34924;SDS011;21130;51.728;8.748;2023-03-31T07:01:29;3.60;;;1.58;;
34924;SDS011;21130;51.728;8.748;2023-03-31T07:03:56;3.63;;;1.70;;
34924;SDS011;21130;51.728;8.748;2023-03-31T07:06:22;3.53;;;1.52;;
34924;SDS011;21130;51.728;8.748;2023-03-31T07:08:49;4.90;;;1.63;;
34924;SDS011;21130;51.728;8.748;2023-03-31T07:11:17;3.15;;;1.13;;
34924;SDS011;21130;51.728;8.748;2023-03-31T07:13:43;2.88;;;1.50;;
34924;SDS011;21130;51.728;8.748;2023-03-31T07:16:10;4.03;;;1.48;;
34924;SDS011;21130;51.728;8.748;2023-03-31T07:18:38;3.22;;;1.20;;
34924;SDS011;21130;51.728;8.748;2023-03-31T07:21:06;2.13;;;1.10;;
34924;SDS011;21130;51.728;8.748;2023-03-31T07:23:33;4.10;;;1.25;;
34924;SDS011;21130;51.728;8.748;2023-03-31T07:25:59;3.22;;;1.20;;
34924;SDS011;21130;51.728;8.748;2023-03-31T07:28:28;1.92;;;1.20;;
34924;SDS011;21130;51.728;8.748;2023-03-31T07:30:54;4.68;;;1.55;;
34924;SDS011;21130;51.728;8.748;2023-03-31T07:33:21;3.05;;;1.42;;
34924;SDS011;21130;51.728;8.748;2023-03-31T07:35:47;4.10;;;1.40;;
34924;SDS011;21130;51.728;8.748;2023-03-31T07:38:14;4.90;;;1.52;;
34924;SDS011;21130;51.728;8.748;2023-03-31T07:40:40;2.08;;;1.10;;
34924;SDS011;21130;51.728;8.748;2023-03-31T07:43:10;2.90;;;1.50;;
34924;SDS011;21130;51.728;8.748;2023-03-31T07:45:38;2.80;;;1.40;;
34924;SDS011;21130;51.728;8.748;2023-03-31T07:48:05;1.25;;;1.10;;
34924;SDS011;21130;51.728;8.748;2023-03-31T07:50:32;1.83;;;1.30;;
34924;SDS011;21130;51.728;8.748;2023-03-31T07:52:59;3.20;;;1.30;;
34924;SDS011;21130;51.728;8.748;2023-03-31T07:55:25;2.42;;;1.10;;
34924;SDS011;21130;51.728;8.748;2023-03-31T07:57:52;3.95;;;1.20;;
34924;SDS011;21130;51.728;8.748;2023-03-31T08:00:19;3.40;;;1.00;;
34924;SDS011;21130;51.728;8.748;2023-03-31T08:02:47;2.58;;;1.20;;
34924;SDS011;21130;51.728;8.748;2023-03-31T08:05:15;2.63;;;1.10;;
34924;SDS011;21130;51.728;8.748;2023-03-31T08:07:43;3.88;;;1.42;;
34924;SDS011;21130;51.728;8.748;2023-03-31T08:10:12;2.33;;;1.17;;
34924;SDS011;21130;51.728;8.748;2023-03-31T08:12:39;3.33;;;1.20;;
34924;SDS011;21130;51.728;8.748;2023-03-31T08:15:06;2.72;;;1.23;;
34924;SDS011;21130;51.728;8.748;2023-03-31T08:17:33;4.18;;;1.00;;
34924;SDS011;21130;51.728;8.748;2023-03-31T08:20:01;1.90;;;0.63;;
34924;SDS011;21130;51.728;8.748;2023-03-31T08:22:30;1.17;;;0.88;;
34924;SDS011;21130;51.728;8.748;2023-03-31T08:24:57;1.10;;;0.80;;
34924;SDS011;21130;51.728;8.748;2023-03-31T08:27:23;1.25;;;0.65;;
34924;SDS011;21130;51.728;8.748;2023-03-31T08:29:50;4.50;;;1.00;;
34924;SDS011;21130;51.728;8.748;2023-03-31T08:32:16;2.30;;;0.90;;
34924;SDS011;21130;51.728;8.748;2023-03-31T08:34:43;2.15;;;0.70;;
34924;SDS011;21130;51.728;8.748;2023-03-31T08:37:11;2.55;;;0.80;;
34924;SDS011;21130;51.728;8.748;2023-03-31T08:39:38;2.78;;;0.93;;
34924;SDS011;21130;51.728;8.748;2023-03-31T08:42:06;1.15;;;0.60;;
34924;SDS011;21130;51.728;8.748;2023-03-31T08:44:38;4.00;;;0.93;;
34924;SDS011;21130;51.728;8.748;2023-03-31T08:47:11;2.65;;;0.90;;
34924;SDS011;21130;51.728;8.748;2023-03-31T08:49:43;2.78;;;0.60;;
34924;SDS011;21130;51.728;8.748;2023-03-31T08:52:14;2.13;;;0.73;;
34924;SDS011;21130;51.728;8.748;2023-03-31T08:54:48;0.93;;;0.60;;
34924;SDS011;21130;51.728;8.748;2023-03-31T08:57:18;0.80;;;0.70;;
34924;SDS011;21130;51.728;8.748;2023-03-31T08:59:49;2.97;;;0.60;;
34924;SDS011;21130;51.728;8.748;2023-03-31T09:02:19;1.70;;;1.02;;
34924;SDS011;21130;51.728;8.748;2023-03-31T09:04:55;1.42;;;0.88;;
34924;SDS011;21130;51.728;8.748;2023-03-31T09:07:37;1.00;;;0.90;;
34924;SDS011;21130;51.728;8.748;2023-03-31T09:10:17;2.25;;;0.93;;
34924;SDS011;21130;51.728;8.748;2023-03-31T09:12:53;2.13;;;0.80;;
34924;SDS011;21130;51.728;8.748;2023-03-31T09:15:25;1.15;;;0.73;;
34924;SDS011;21130;51.728;8.748;2023-03-31T09:17:54;3.70;;;0.93;;
34924;SDS011;21130;51.728;8.748;2023-03-31T09:20:27;3.90;;;1.00;;
34924;SDS011;21130;51.728;8.748;2023-03-31T09:22:59;2.38;;;0.73;;
34924;SDS011;21130;51.728;8.748;2023-03-31T09:25:30;2.30;;;0.73;;
34924;SDS011;21130;51.728;8.748;2023-03-31T09:27:59;2.42;;;0.60;;
34924;SDS011;21130;51.728;8.748;2023-03-31T09:30:29;1.30;;;0.63;;
34924;SDS011;21130;51.728;8.748;2023-03-31T09:33:08;0.93;;;0.60;;
34924;SDS011;21130;51.728;8.748;2023-03-31T09:35:37;1.65;;;1.00;;
34924;SDS011;21130;51.728;8.748;2023-03-31T09:38:05;3.10;;;0.90;;
34924;SDS011;21130;51.728;8.748;2023-03-31T09:40:32;2.35;;;1.00;;
34924;SDS011;21130;51.728;8.748;2023-03-31T09:43:00;0.93;;;0.70;;
34924;SDS011;21130;51.728;8.748;2023-03-31T09:45:29;0.93;;;0.80;;
34924;SDS011;21130;51.728;8.748;2023-03-31T09:47:58;1.40;;;0.90;;
34924;SDS011;21130;51.728;8.748;2023-03-31T09:50:27;1.17;;;1.08;;
34924;SDS011;21130;51.728;8.748;2023-03-31T09:52:57;1.65;;;1.20;;
34924;SDS011;21130;51.728;8.748;2023-03-31T09:55:30;1.77;;;0.80;;
34924;SDS011;21130;51.728;8.748;2023-03-31T09:58:00;1.05;;;0.90;;
34924;SDS011;21130;51.728;8.748;2023-03-31T10:00:26;1.30;;;0.88;;
34924;SDS011;21130;51.728;8.748;2023-03-31T10:03:13;1.00;;;0.80;;
34924;SDS011;21130;51.728;8.748;2023-03-31T10:05:47;3.13;;;0.77;;
34924;SDS011;21130;51.728;8.748;2023-03-31T10:08:20;2.30;;;1.02;;
34924;SDS011;21130;51.728;8.748;2023-03-31T10:10:51;3.00;;;0.95;;
34924;SDS011;21130;51.728;8.748;2023-03-31T10:13:21;1.45;;;1.08;;
34924;SDS011;21130;51.728;8.748;2023-03-31T10:15:51;1.58;;;1.00;;
34924;SDS011;21130;51.728;8.748;2023-03-31T10:18:18;2.78;;;1.00;;
34924;SDS011;21130;51.728;8.748;2023-03-31T10:20:47;3.15;;;1.10;;
34924;SDS011;21130;51.728;8.748;2023-03-31T10:23:16;4.60;;;1.10;;
34924;SDS011;21130;51.728;8.748;2023-03-31T10:25:48;2.13;;;1.30;;
34924;SDS011;21130;51.728;8.748;2023-03-31T10:28:17;3.17;;;1.65;;
34924;SDS011;21130;51.728;8.748;2023-03-31T10:30:46;2.75;;;1.50;;
34924;SDS011;21130;51.728;8.748;2023-03-31T10:33:15;5.60;;;1.50;;
34924;SDS011;21130;51.728;8.748;2023-03-31T10:35:44;5.05;;;1.70;;
34924;SDS011;21130;51.728;8.748;2023-03-31T10:38:13;5.43;;;1.90;;
34924;SDS011;21130;51.728;8.748;2023-03-31T10:40:42;5.13;;;1.70;;
34924;SDS011;21130;51.728;8.748;2023-03-31T10:43:17;6.70;;;1.80;;
34924;SDS011;21130;51.728;8.748;2023-03-31T10:45:47;4.78;;;1.52;;
34924;SDS011;21130;51.728;8.748;2023-03-31T10:48:19;5.00;;;1.67;;
34924;SDS011;21130;51.728;8.748;2023-03-31T10:50:50;5.20;;;1.80;;
34924;SDS011;21130;51.728;8.748;2023-03-31T10:53:17;6.95;;;1.60;;
34924;SDS011;21130;51.728;8.748;2023-03-31T10:55:47;5.70;;;1.70;;
34924;SDS011;21130;51.728;8.748;2023-03-31T10:58:29;3.80;;;1.73;;
34924;SDS011;21130;51.728;8.748;2023-03-31T11:01:07;3.30;;;1.35;;
34924;SDS011;21130;51.728;8.748;2023-03-31T11:03:50;3.15;;;1.10;;
34924;SDS011;21130;51.728;8.748;2023-03-31T11:06:38;3.05;;;1.17;;
34924;SDS011;21130;51.728;8.748;2023-03-31T11:09:15;2.20;;;0.77;;
34924;SDS011;21130;51.728;8.748;2023-03-31T11:11:59;3.45;;;1.58;;
34924;SDS011;21130;51.728;8.748;2023-03-31T11:14:42;3.95;;;1.50;;
34924;SDS011;21130;51.728;8.748;2023-03-31T11:17:21;3.08;;;1.20;;
34924;SDS011;21130;51.728;8.748;2023-03-31T11:19:59;2.42;;;1.20;;
34924;SDS011;21130;51.728;8.748;2023-03-31T11:22:36;4.68;;;1.48;;
34924;SDS011;21130;51.728;8.748;2023-03-31T11:25:15;2.72;;;1.25;;
34924;SDS011;21130;51.728;8.748;2023-03-31T11:27:49;3.20;;;1.30;;
34924;SDS011;21130;51.728;8.748;2023-03-31T11:30:44;3.83;;;1.08;;
34924;SDS011;21130;51.728;8.748;2023-03-31T11:33:25;2.92;;;1.10;;
34924;SDS011;21130;51.728;8.748;2023-03-31T11:36:11;3.28;;;1.48;;
34924;SDS011;21130;51.728;8.748;2023-03-31T11:38:47;5.18;;;1.45;;
34924;SDS011;21130;51.728;8.748;2023-03-31T11:41:27;4.10;;;1.25;;
34924;SDS011;21130;51.728;8.748;2023-03-31T11:43:59;3.75;;;1.33;;
34924;SDS011;21130;51.728;8.748;2023-03-31T11:46:33;4.32;;;1.30;;
34924;SDS011;21130;51.728;8.748;2023-03-31T11:49:05;3.72;;;1.50;;
34924;SDS011;21130;51.728;8.748;2023-03-31T11:51:38;4.85;;;1.60;;
34924;SDS011;21130;51.728;8.748;2023-03-31T11:54:11;5.75;;;1.90;;
34924;SDS011;21130;51.728;8.748;2023-03-31T11:56:43;4.53;;;1.42;;
34924;SDS011;21130;51.728;8.748;2023-03-31T11:59:10;4.50;;;1.80;;
34924;SDS011;21130;51.728;8.748;2023-03-31T12:01:43;6.88;;;2.15;;
34924;SDS011;21130;51.728;8.748;2023-03-31T12:04:16;4.13;;;1.80;;
34924;SDS011;21130;51.728;8.748;2023-03-31T12:06:53;4.45;;;1.70;;
34924;SDS011;21130;51.728;8.748;2023-03-31T12:09:26;6.25;;;1.55;;
34924;SDS011;21130;51.728;8.748;2023-03-31T12:11:59;3.70;;;2.05;;
34924;SDS011;21130;51.728;8.748;2023-03-31T12:14:32;6.30;;;2.33;;
34924;SDS011;21130;51.728;8.748;2023-03-31T12:17:07;4.35;;;2.00;;
34924;SDS011;21130;51.728;8.748;2023-03-31T12:19:39;6.32;;;1.90;;
34924;SDS011;21130;51.728;8.748;2023-03-31T12:22:13;8.48;;;2.03;;
34924;SDS011;21130;51.728;8.748;2023-03-31T12:24:43;5.80;;;1.80;;
34924;SDS011;21130;51.728;8.748;2023-03-31T12:27:12;6.25;;;1.90;;
34924;SDS011;21130;51.728;8.748;2023-03-31T12:29:41;2.35;;;1.02;;
34924;SDS011;21130;51.728;8.748;2023-03-31T12:32:14;6.65;;;1.45;;
34924;SDS011;21130;51.728;8.748;2023-03-31T12:34:44;2.20;;;1.05;;
34924;SDS011;21130;51.728;8.748;2023-03-31T12:37:22;3.70;;;1.33;;
34924;SDS011;21130;51.728;8.748;2023-03-31T12:40:03;2.78;;;0.95;;
34924;SDS011;21130;51.728;8.748;2023-03-31T12:42:46;4.10;;;0.80;;
34924;SDS011;21130;51.728;8.748;2023-03-31T12:45:25;2.05;;;0.70;;
34924;SDS011;21130;51.728;8.748;2023-03-31T12:48:06;2.35;;;1.42;;
34924;SDS011;21130;51.728;8.748;2023-03-31T12:50:52;3.80;;;1.20;;
34924;SDS011;21130;51.728;8.748;2023-03-31T12:53:35;2.50;;;1.10;;
34924;SDS011;21130;51.728;8.748;2023-03-31T12:56:10;1.33;;;1.08;;
34924;SDS011;21130;51.728;8.748;2023-03-31T12:58:37;2.40;;;1.10;;
34924;SDS011;21130;51.728;8.748;2023-03-31T13:01:17;3.08;;;1.02;;
34924;SDS011;21130;51.728;8.748;2023-03-31T13:03:50;3.20;;;1.25;;
34924;SDS011;21130;51.728;8.748;2023-03-31T13:12:08;1.65;;;1.05;;
34924;SDS011;21130;51.728;8.748;2023-03-31T13:14:39;3.50;;;1.30;;
34924;SDS011;21130;51.728;8.748;2023-03-31T13:17:13;4.38;;;1.10;;
34924;SDS011;21130;51.728;8.748;2023-03-31T13:19:49;4.82;;;1.35;;
34924;SDS011;21130;51.728;8.748;2023-03-31T13:22:27;3.25;;;1.27;;
34924;SDS011;21130;51.728;8.748;2023-03-31T13:28:07;1.48;;;0.95;;
34924;SDS011;21130;51.728;8.748;2023-03-31T13:30:51;3.10;;;1.33;;
34924;SDS011;21130;51.728;8.748;2023-03-31T13:33:20;1.15;;;0.80;;
34924;SDS011;21130;51.728;8.748;2023-03-31T13:35:52;2.65;;;1.15;;
34924;SDS011;21130;51.728;8.748;2023-03-31T13:38:34;4.55;;;0.85;;
34924;SDS011;21130;51.728;8.748;2023-03-31T13:41:20;1.15;;;0.70;;
34924;SDS011;21130;51.728;8.748;2023-03-31T13:44:05;3.03;;;0.80;;
34924;SDS011;21130;51.728;8.748;2023-03-31T13:46:51;1.08;;;0.82;;
34924;SDS011;21130;51.728;8.748;2023-03-31T13:49:52;1.83;;;0.55;;
34924;SDS011;21130;51.728;8.748;2023-03-31T13:52:33;1.80;;;0.85;;
34924;SDS011;21130;51.728;8.748;2023-03-31T13:58:18;2.05;;;0.80;;
34924;SDS011;21130;51.728;8.748;2023-03-31T14:01:20;3.30;;;1.00;;
34924;SDS011;21130;51.728;8.748;2023-03-31T14:04:07;2.88;;;0.70;;
34924;SDS011;21130;51.728;8.748;2023-03-31T14:06:49;1.75;;;0.80;;
34924;SDS011;21130;51.728;8.748;2023-03-31T14:09:24;2.83;;;0.80;;
34924;SDS011;21130;51.728;8.748;2023-03-31T14:11:54;0.88;;;0.68;;
34924;SDS011;21130;51.728;8.748;2023-03-31T14:14:23;1.63;;;0.52;;
34924;SDS011;21130;51.728;8.748;2023-03-31T14:16:51;1.58;;;0.80;;
34924;SDS011;21130;51.728;8.748;2023-03-31T14:19:31;2.90;;;1.13;;
34924;SDS011;21130;51.728;8.748;2023-03-31T14:22:10;1.27;;;0.85;;
34924;SDS011;21130;51.728;8.748;2023-03-31T14:24:47;3.75;;;0.90;;
34924;SDS011;21130;51.728;8.748;2023-03-31T14:27:23;3.60;;;0.93;;
34924;SDS011;21130;51.728;8.748;2023-03-31T14:30:10;3.25;;;1.00;;
34924;SDS011;21130;51.728;8.748;2023-03-31T14:32:45;4.35;;;1.35;;
34924;SDS011;21130;51.728;8.748;2023-03-31T14:35:23;2.17;;;0.77;;
34924;SDS011;21130;51.728;8.748;2023-03-31T14:37:56;1.73;;;1.08;;
34924;SDS011;21130;51.728;8.748;2023-03-31T14:40:24;3.08;;;1.15;;
34924;SDS011;21130;51.728;8.748;2023-03-31T14:42:50;3.88;;;0.90;;
34924;SDS011;21130;51.728;8.748;2023-03-31T14:45:19;1.30;;;0.70;;
34924;SDS011;21130;51.728;8.748;2023-03-31T14:47:53;3.35;;;1.10;;
34924;SDS011;21130;51.728;8.748;2023-03-31T14:50:20;2.47;;;1.00;;
34924;SDS011;21130;51.728;8.748;2023-03-31T14:52:47;1.65;;;0.98;;
34924;SDS011;21130;51.728;8.748;2023-03-31T14:55:17;1.20;;;0.90;;
34924;SDS011;21130;51.728;8.748;2023-03-31T14:57:49;1.52;;;1.17;;
34924;SDS011;21130;51.728;8.748;2023-03-31T15:00:21;4.15;;;1.42;;
34924;SDS011;21130;51.728;8.748;2023-03-31T15:02:51;3.45;;;1.08;;
34924;SDS011;21130;51.728;8.748;2023-03-31T15:05:24;2.97;;;1.27;;
34924;SDS011;21130;51.728;8.748;2023-03-31T15:07:55;2.30;;;1.30;;
34924;SDS011;21130;51.728;8.748;2023-03-31T15:10:22;3.13;;;1.38;;
34924;SDS011;21130;51.728;8.748;2023-03-31T15:12:51;2.28;;;1.10;;
34924;SDS011;21130;51.728;8.748;2023-03-31T15:15:18;2.65;;;1.25;;
34924;SDS011;21130;51.728;8.748;2023-03-31T15:17:46;4.63;;;1.63;;
34924;SDS011;21130;51.728;8.748;2023-03-31T15:20:20;4.53;;;2.13;;
34924;SDS011;21130;51.728;8.748;2023-03-31T15:22:52;4.60;;;1.40;;
34924;SDS011;21130;51.728;8.748;2023-03-31T15:25:19;3.65;;;1.65;;
34924;SDS011;21130;51.728;8.748;2023-03-31T15:27:46;4.25;;;1.30;;
34924;SDS011;21130;51.728;8.748;2023-03-31T15:30:17;3.78;;;1.83;;
34924;SDS011;21130;51.728;8.748;2023-03-31T15:32:44;4.45;;;1.95;;
34924;SDS011;21130;51.728;8.748;2023-03-31T15:35:16;4.47;;;1.63;;
34924;SDS011;21130;51.728;8.748;2023-03-31T15:37:46;4.30;;;1.70;;
34924;SDS011;21130;51.728;8.748;2023-03-31T15:40:15;3.90;;;1.67;;